createdAt,value
2022-12-11T00:00:18.520Z,98085.44
2022-12-11T00:03:21.519Z,98099.00
2022-12-11T00:06:24.310Z,98102.09
2022-12-11T00:09:27.333Z,98093.59
2022-12-11T00:12:31.106Z,98082.34
2022-12-11T00:15:33.975Z,98098.62
2022-12-11T00:18:37.636Z,98091.28
2022-12-11T00:21:40.570Z,98097.09
2022-12-11T00:24:43.285Z,98104.06
2022-12-11T00:27:47.146Z,98097.44
2022-12-11T00:30:50.148Z,98111.41
2022-12-11T00:33:53.231Z,98109.09
2022-12-11T00:36:59.249Z,98106.75
2022-12-11T00:40:02.265Z,98093.19
2022-12-11T00:43:05.437Z,98125.34
2022-12-11T00:46:08.539Z,98115.31
2022-12-11T00:49:11.187Z,98112.97
2022-12-11T00:52:14.212Z,98106.38
2022-12-11T00:55:16.883Z,98114.12
2022-12-11T00:58:20.300Z,98106.00
2022-12-11T01:01:25.388Z,98116.84
2022-12-11T01:04:28.523Z,98119.94
2022-12-11T01:07:31.146Z,98124.19
2022-12-11T01:10:34.919Z,98132.34
2022-12-11T01:13:38.399Z,98135.84
2022-12-11T01:16:41.396Z,98142.03
2022-12-11T01:19:44.020Z,98146.66
2022-12-11T01:22:47.349Z,98149.78
2022-12-11T01:25:50.068Z,98163.34
2022-12-11T01:28:53.083Z,98179.66
2022-12-11T01:31:55.831Z,98169.19
2022-12-11T01:34:58.850Z,98169.16
2022-12-11T01:38:01.553Z,98164.13
2022-12-11T01:41:04.756Z,98182.34
2022-12-11T01:44:16.591Z,98188.97
2022-12-11T01:47:19.681Z,98194.37
2022-12-11T01:50:22.649Z,98184.66
2022-12-11T01:53:31.437Z,98186.16
2022-12-11T01:56:37.244Z,98197.38
2022-12-11T01:59:43.243Z,98203.22
2022-12-11T02:02:46.139Z,98215.19
2022-12-11T02:05:49.342Z,98208.56
2022-12-11T02:08:51.967Z,98191.12
2022-12-11T02:12:22.776Z,98206.25
2022-12-11T02:15:40.108Z,98213.84
2022-12-11T02:18:53.733Z,98208.75
2022-12-11T02:21:57.832Z,98212.25
2022-12-11T02:25:10.974Z,98210.66
2022-12-11T02:28:25.862Z,98219.63
2022-12-11T02:31:53.256Z,98214.91
2022-12-11T02:35:03.447Z,98208.66
2022-12-11T02:38:13.076Z,98207.12
2022-12-11T02:41:18.586Z,98209.34
2022-12-11T02:44:25.575Z,98219.22
2022-12-11T02:47:30.560Z,98222.34
2022-12-11T02:50:36.287Z,98227.31
2022-12-11T02:53:42.212Z,98223.50
2022-12-11T02:56:53.815Z,98219.78
2022-12-11T02:59:56.626Z,98205.88
2022-12-11T03:02:59.656Z,98216.81
2022-12-11T03:06:02.602Z,98222.09
2022-12-11T03:09:06.902Z,98231.19
2022-12-11T03:12:13.711Z,98238.22
2022-12-11T03:15:19.637Z,98234.66
2022-12-11T03:18:34.475Z,98249.13
2022-12-11T03:21:54.558Z,98247.19
2022-12-11T03:25:02.711Z,98255.28
2022-12-11T03:28:19.537Z,98271.81
2022-12-11T03:31:44.183Z,98288.75
2022-12-11T03:34:58.182Z,98318.09
2022-12-11T03:38:06.383Z,98345.03
2022-12-11T03:41:11.897Z,98341.94
2022-12-11T03:44:15.952Z,98360.59
2022-12-11T03:47:22.971Z,98363.47
2022-12-11T03:50:28.863Z,98360.91
2022-12-11T03:53:34.688Z,98381.50
2022-12-11T03:56:40.935Z,98380.81
2022-12-11T03:59:44.300Z,98377.37
2022-12-11T04:03:11.359Z,98390.44
2022-12-11T04:06:16.523Z,98400.94
2022-12-11T04:09:19.241Z,98406.03
2022-12-11T04:12:22.276Z,98421.84
2022-12-11T04:15:24.880Z,98409.06
2022-12-11T04:18:46.601Z,98418.97
2022-12-11T04:22:07.852Z,98431.41
2022-12-11T04:25:10.894Z,98420.28
2022-12-11T04:28:13.885Z,98421.56
2022-12-11T04:31:21.044Z,98420.66
2022-12-11T04:34:23.806Z,98428.84
2022-12-11T04:37:27.823Z,98432.41
2022-12-11T04:40:30.670Z,98435.19
2022-12-11T04:43:33.894Z,98429.75
2022-12-11T04:46:36.524Z,98418.72
2022-12-11T04:49:39.420Z,98416.37
2022-12-11T04:52:43.339Z,98421.84
2022-12-11T04:55:46.166Z,98419.31
2022-12-11T04:58:49.646Z,98437.19
2022-12-11T05:01:52.681Z,98434.12
2022-12-11T05:04:55.362Z,98432.75
2022-12-11T05:07:58.348Z,98439.25
2022-12-11T05:11:03.810Z,98466.56
2022-12-11T05:14:06.874Z,98459.28
2022-12-11T05:17:09.411Z,98468.91
2022-12-11T05:20:12.334Z,98483.06
2022-12-11T05:23:14.932Z,98494.19
2022-12-11T05:26:20.070Z,98499.13
2022-12-11T05:29:22.649Z,98505.78
2022-12-11T05:32:25.561Z,98511.28
2022-12-11T05:35:28.138Z,98516.91
2022-12-11T05:38:31.371Z,98519.44
2022-12-11T05:41:34.047Z,98535.34
2022-12-11T05:44:36.957Z,98540.84
2022-12-11T05:47:39.538Z,98556.22
2022-12-11T05:50:42.452Z,98560.56
2022-12-11T05:53:46.764Z,98575.37
2022-12-11T05:56:51.188Z,98578.16
2022-12-11T05:59:53.831Z,98592.84
2022-12-11T06:02:56.778Z,98586.41
2022-12-11T06:06:03.088Z,98579.56
2022-12-11T06:09:06.396Z,98600.38
2022-12-11T06:12:09.420Z,98605.06
2022-12-11T06:15:12.207Z,98607.78
2022-12-11T06:18:15.152Z,98611.91
2022-12-11T06:21:25.266Z,98616.31
2022-12-11T06:24:28.168Z,98627.41
2022-12-11T06:27:31.135Z,98642.44
2022-12-11T06:30:38.329Z,98647.00
2022-12-11T06:33:42.348Z,98649.44
2022-12-11T06:36:45.276Z,98651.56
2022-12-11T06:39:47.925Z,98663.22
2022-12-11T06:42:50.772Z,98662.03
2022-12-11T06:45:53.462Z,98673.59
2022-12-11T06:48:56.401Z,98672.25
2022-12-11T06:51:59.082Z,98668.34
2022-12-11T06:55:01.969Z,98666.25
2022-12-11T06:58:04.673Z,98680.34
2022-12-11T07:01:16.007Z,98671.09
2022-12-11T07:04:18.956Z,98671.28
2022-12-11T07:07:21.882Z,98667.22
2022-12-11T07:10:24.882Z,98685.03
2022-12-11T07:13:27.810Z,98688.81
2022-12-11T07:16:30.548Z,98696.59
2022-12-11T07:19:33.597Z,98714.13
2022-12-11T07:22:39.328Z,98722.94
2022-12-11T07:25:46.483Z,98729.47
2022-12-11T07:28:50.020Z,98738.69
2022-12-11T07:31:53.061Z,98741.97
2022-12-11T07:34:55.812Z,98758.41
2022-12-11T07:37:59.779Z,98762.19
2022-12-11T07:41:03.376Z,98768.16
2022-12-11T07:44:06.288Z,98767.31
2022-12-11T07:47:08.935Z,98773.47
2022-12-11T07:50:12.199Z,98776.38
2022-12-11T07:53:14.888Z,98779.72
2022-12-11T07:56:18.902Z,98774.59
2022-12-11T07:59:21.649Z,98787.41
2022-12-11T08:02:24.688Z,98789.94
2022-12-11T08:05:27.681Z,98791.88
2022-12-11T08:08:30.291Z,98799.16
2022-12-11T08:11:34.647Z,98800.56
2022-12-11T08:14:37.640Z,98814.47
2022-12-11T08:17:40.541Z,98815.28
2022-12-11T08:20:43.211Z,98812.00
2022-12-11T08:23:48.099Z,98828.69
2022-12-11T08:26:50.724Z,98845.03
2022-12-11T08:29:53.572Z,98849.97
2022-12-11T08:32:56.234Z,98853.44
2022-12-11T08:35:59.134Z,98863.34
2022-12-11T08:39:01.722Z,98867.16
2022-12-11T08:42:05.285Z,98862.47
2022-12-11T08:45:08.697Z,98866.69
2022-12-11T08:48:11.717Z,98861.97
2022-12-11T08:51:17.095Z,98877.91
2022-12-11T08:54:20.262Z,98886.19
2022-12-11T08:57:25.435Z,98886.34
2022-12-11T09:00:28.598Z,98864.69
2022-12-11T09:03:31.204Z,98893.16
2022-12-11T09:06:34.159Z,98882.91
2022-12-11T09:09:36.784Z,98891.03
2022-12-11T09:12:40.987Z,98881.56
2022-12-11T09:15:43.648Z,98883.28
2022-12-11T09:18:48.118Z,98879.78
2022-12-11T09:21:50.772Z,98886.09
2022-12-11T09:24:53.695Z,98891.19
2022-12-11T09:27:56.322Z,98887.69
2022-12-11T09:30:59.795Z,98895.09
2022-12-11T09:34:06.524Z,98901.56
2022-12-11T09:37:09.438Z,98901.06
2022-12-11T09:40:12.663Z,98896.31
2022-12-11T09:43:22.636Z,98888.03
2022-12-11T09:46:29.569Z,98878.06
2022-12-11T09:49:42.720Z,98882.03
2022-12-11T09:53:33.884Z,98880.84
2022-12-11T09:56:45.625Z,98885.59
2022-12-11T10:00:11.501Z,98879.38
2022-12-11T10:03:38.523Z,98886.50
2022-12-11T10:07:05.286Z,98887.63
2022-12-11T10:10:17.556Z,98886.31
2022-12-11T10:13:41.884Z,98888.59
2022-12-11T10:16:48.961Z,98900.84
2022-12-11T10:19:52.354Z,98907.94
2022-12-11T10:22:56.969Z,98901.00
2022-12-11T10:26:06.523Z,98906.62
2022-12-11T10:29:14.988Z,98901.34
2022-12-11T10:32:24.789Z,98880.19
2022-12-11T10:35:40.575Z,98892.59
2022-12-11T10:38:45.621Z,98884.00
2022-12-11T10:41:53.333Z,98890.81
2022-12-11T10:45:01.168Z,98881.59
2022-12-11T10:48:07.371Z,98899.78
2022-12-11T10:51:10.034Z,98901.41
2022-12-11T10:54:33.852Z,98892.28
2022-12-11T10:57:39.254Z,98887.75
2022-12-11T11:00:42.566Z,98896.06
2022-12-11T11:04:15.530Z,98893.13
2022-12-11T11:07:18.358Z,98895.28
2022-12-11T11:10:21.379Z,98895.87
2022-12-11T11:13:26.984Z,98893.25
2022-12-11T11:16:30.184Z,98888.03
2022-12-11T11:19:35.880Z,98894.28
2022-12-11T11:22:49.566Z,98886.75
2022-12-11T11:26:02.209Z,98895.75
2022-12-11T11:29:05.324Z,98890.00
2022-12-11T11:32:20.252Z,98903.13
2022-12-11T11:35:28.085Z,98904.81
2022-12-11T11:38:36.654Z,98904.16
2022-12-11T11:41:39.160Z,98903.09
2022-12-11T11:44:56.035Z,98914.81
2022-12-11T11:48:09.467Z,98910.78
2022-12-11T11:51:20.560Z,98905.22
2022-12-11T11:54:55.484Z,98904.50
2022-12-11T11:58:12.600Z,98909.91
2022-12-11T12:01:17.899Z,98914.72
2022-12-11T12:04:20.828Z,98914.84
2022-12-11T12:07:42.287Z,98917.69
2022-12-11T12:11:09.427Z,98923.47
2022-12-11T12:14:52.112Z,98923.38
2022-12-11T12:17:58.589Z,98929.28
2022-12-11T12:21:27.704Z,98933.53
2022-12-11T12:24:40.127Z,98929.25
2022-12-11T12:28:13.994Z,98935.75
2022-12-11T12:31:20.304Z,98951.84
2022-12-11T12:34:55.398Z,98954.94
2022-12-11T12:38:07.451Z,98953.53
2022-12-11T12:41:22.603Z,98957.97
2022-12-11T12:44:28.894Z,98957.69
2022-12-11T12:47:36.202Z,98956.28
2022-12-11T12:50:46.519Z,98965.59
2022-12-11T12:53:55.586Z,98963.81
2022-12-11T12:56:59.993Z,98967.13
2022-12-11T13:00:08.143Z,98968.81
2022-12-11T13:03:17.558Z,98977.50
2022-12-11T13:06:40.907Z,98977.63
2022-12-11T13:09:44.254Z,98973.59
2022-12-11T13:12:47.075Z,98974.88
2022-12-11T13:15:50.026Z,98978.34
2022-12-11T13:18:56.279Z,98973.38
2022-12-11T13:22:00.056Z,98978.13
2022-12-11T13:25:20.299Z,98978.22
2022-12-11T13:28:31.400Z,98982.22
2022-12-11T13:31:37.142Z,98981.00
2022-12-11T13:34:44.306Z,98982.22
2022-12-11T13:37:50.166Z,98989.66
2022-12-11T13:40:55.827Z,98991.56
2022-12-11T13:43:59.002Z,99002.25
2022-12-11T13:47:03.934Z,99001.28
2022-12-11T13:50:34.453Z,99007.56
2022-12-11T13:53:37.371Z,99011.13
2022-12-11T13:56:40.300Z,99025.53
2022-12-11T13:59:48.884Z,99035.38
2022-12-11T14:02:54.643Z,99026.94
2022-12-11T14:05:57.679Z,99025.94
2022-12-11T14:09:02.982Z,99022.50
2022-12-11T14:12:06.539Z,99027.78
2022-12-11T14:15:14.720Z,99043.28
2022-12-11T14:18:25.192Z,99037.47
2022-12-11T14:21:27.836Z,99046.50
2022-12-11T14:24:32.047Z,99048.59
2022-12-11T14:27:34.909Z,99056.91
2022-12-11T14:30:45.135Z,99050.00
2022-12-11T14:33:53.407Z,99055.34
2022-12-11T14:36:57.070Z,99070.34
2022-12-11T14:40:07.304Z,99067.59
2022-12-11T14:43:18.640Z,99070.34
2022-12-11T14:46:32.818Z,99086.03
2022-12-11T14:50:19.532Z,99094.16
2022-12-11T14:53:28.399Z,99083.94
2022-12-11T14:56:31.897Z,99072.84
2022-12-11T14:59:41.340Z,99076.56
2022-12-11T15:03:17.544Z,99084.56
2022-12-11T15:06:29.062Z,99085.19
2022-12-11T15:09:36.237Z,99075.66
2022-12-11T15:12:45.175Z,99077.50
2022-12-11T15:15:48.660Z,99083.69
2022-12-11T15:18:54.483Z,99081.31
2022-12-11T15:22:09.947Z,99079.59
2022-12-11T15:25:24.263Z,99077.56
2022-12-11T15:28:34.281Z,99077.84
2022-12-11T15:31:37.292Z,99082.91
2022-12-11T15:34:46.255Z,99090.34
2022-12-11T15:37:55.819Z,99097.22
2022-12-11T15:40:59.600Z,99095.31
2022-12-11T15:44:04.214Z,99103.94
2022-12-11T15:47:21.279Z,99109.84
2022-12-11T15:50:28.695Z,99113.25
2022-12-11T15:53:31.639Z,99108.94
2022-12-11T15:56:34.314Z,99118.44
2022-12-11T15:59:37.183Z,99122.34
2022-12-11T16:02:40.185Z,99118.75
2022-12-11T16:05:43.456Z,99127.16
2022-12-11T16:08:46.344Z,99130.38
2022-12-11T16:11:49.307Z,99127.16
2022-12-11T16:14:52.481Z,99132.13
2022-12-11T16:18:10.653Z,99131.69
2022-12-11T16:21:16.853Z,99125.13
2022-12-11T16:24:24.383Z,99120.84
2022-12-11T16:27:27.029Z,99110.41
2022-12-11T16:30:31.321Z,99121.75
2022-12-11T16:33:34.140Z,99112.91
2022-12-11T16:36:38.070Z,99120.16
2022-12-11T16:39:42.596Z,99113.28
2022-12-11T16:42:45.949Z,99109.97
2022-12-11T16:45:54.863Z,99118.16
2022-12-11T16:48:58.219Z,99117.78
2022-12-11T16:52:01.034Z,99121.53
2022-12-11T16:55:04.538Z,99109.87
2022-12-11T16:58:07.602Z,99130.09
2022-12-11T17:01:12.853Z,99127.31
2022-12-11T17:04:15.451Z,99120.69
2022-12-11T17:07:19.810Z,99133.25
2022-12-11T17:10:22.462Z,99128.59
2022-12-11T17:13:25.609Z,99126.78
2022-12-11T17:16:30.464Z,99134.22
2022-12-11T17:19:33.428Z,99137.34
2022-12-11T17:22:36.731Z,99131.94
2022-12-11T17:25:41.433Z,99138.13
2022-12-11T17:28:45.852Z,99137.97
2022-12-11T17:31:48.936Z,99152.53
2022-12-11T17:34:51.545Z,99162.50
2022-12-11T17:37:54.840Z,99154.19
2022-12-11T17:40:58.371Z,99165.19
2022-12-11T17:44:01.291Z,99161.94
2022-12-11T17:47:10.612Z,99158.03
2022-12-11T17:50:14.534Z,99157.22
2022-12-11T17:53:19.092Z,99165.28
2022-12-11T17:56:22.849Z,99168.41
2022-12-11T17:59:25.467Z,99169.22
2022-12-11T18:02:28.745Z,99165.44
2022-12-11T18:05:31.908Z,99166.00
2022-12-11T18:08:34.783Z,99176.25
2022-12-11T18:11:38.279Z,99184.28
2022-12-11T18:14:41.066Z,99186.59
2022-12-11T18:17:46.399Z,99188.56
2022-12-11T18:20:51.138Z,99191.28
2022-12-11T18:23:54.969Z,99194.59
2022-12-11T18:26:59.295Z,99192.16
2022-12-11T18:30:02.947Z,99195.03
2022-12-11T18:33:05.868Z,99193.22
2022-12-11T18:36:09.695Z,99193.28
2022-12-11T18:39:13.628Z,99199.59
2022-12-11T18:42:32.675Z,99210.03
2022-12-11T18:45:40.472Z,99208.66
2022-12-11T18:48:44.561Z,99209.56
2022-12-11T18:51:47.823Z,99212.22
2022-12-11T18:54:52.419Z,99213.84
2022-12-11T18:57:55.255Z,99217.50
2022-12-11T19:00:59.015Z,99222.41
2022-12-11T19:04:06.509Z,99221.56
2022-12-11T19:07:12.763Z,99225.72
2022-12-11T19:10:19.653Z,99224.41
2022-12-11T19:13:23.504Z,99219.84
2022-12-11T19:16:38.587Z,99226.38
2022-12-11T19:19:45.272Z,99223.31
2022-12-11T19:22:48.327Z,99231.06
2022-12-11T19:25:51.727Z,99223.09
2022-12-11T19:28:57.021Z,99227.59
2022-12-11T19:32:05.328Z,99226.53
2022-12-11T19:35:08.251Z,99228.88
2022-12-11T19:38:12.901Z,99233.91
2022-12-11T19:41:29.636Z,99230.94
2022-12-11T19:44:32.844Z,99243.00
2022-12-11T19:47:36.175Z,99238.00
2022-12-11T19:50:39.926Z,99240.84
2022-12-11T19:53:44.090Z,99237.09
2022-12-11T19:56:47.241Z,99242.69
2022-12-11T19:59:56.775Z,99247.47
2022-12-11T20:03:00.555Z,99262.78
2022-12-11T20:06:07.500Z,99255.06
2022-12-11T20:09:12.119Z,99258.16
2022-12-11T20:12:15.526Z,99255.13
2022-12-11T20:15:20.518Z,99261.56
2022-12-11T20:18:23.731Z,99258.62
2022-12-11T20:21:27.425Z,99260.38
2022-12-11T20:24:30.898Z,99272.66
2022-12-11T20:27:33.943Z,99274.19
2022-12-11T20:30:37.670Z,99271.97
2022-12-11T20:33:40.539Z,99275.78
2022-12-11T20:36:43.507Z,99267.91
2022-12-11T20:39:46.376Z,99264.16
2022-12-11T20:42:51.009Z,99263.91
2022-12-11T20:45:53.674Z,99276.97
2022-12-11T20:48:58.901Z,99271.25
2022-12-11T20:52:01.975Z,99277.94
2022-12-11T20:55:07.551Z,99287.75
2022-12-11T20:58:10.857Z,99280.50
2022-12-11T21:01:19.460Z,99284.37
2022-12-11T21:04:24.035Z,99286.00
2022-12-11T21:07:27.103Z,99291.72
2022-12-11T21:10:31.386Z,99300.59
2022-12-11T21:13:36.179Z,99297.75
2022-12-11T21:16:39.465Z,99300.72
2022-12-11T21:19:42.363Z,99306.91
2022-12-11T21:22:45.331Z,99306.66
2022-12-11T21:25:51.431Z,99315.63
2022-12-11T21:28:54.104Z,99315.91
2022-12-11T21:31:57.876Z,99319.41
2022-12-11T21:35:00.664Z,99315.94
2022-12-11T21:38:03.570Z,99318.84
2022-12-11T21:41:17.723Z,99318.75
2022-12-11T21:47:44.617Z,99315.91
2022-12-11T21:50:47.546Z,99328.53
2022-12-11T21:53:50.825Z,99308.97
2022-12-11T21:56:54.657Z,99328.75
2022-12-11T21:59:57.383Z,99333.84
2022-12-11T22:03:00.284Z,99344.38
2022-12-11T22:06:03.287Z,99347.41
2022-12-11T22:09:06.146Z,99346.09
2022-12-11T22:12:17.515Z,99345.03
2022-12-11T22:15:20.238Z,99344.66
2022-12-11T22:18:27.093Z,99342.34
2022-12-11T22:21:29.979Z,99346.88
2022-12-11T22:24:32.871Z,99342.62
2022-12-11T22:27:35.623Z,99342.88
2022-12-11T22:30:38.962Z,99346.41
2022-12-11T22:33:41.650Z,99340.88
2022-12-11T22:36:44.616Z,99333.72
2022-12-11T22:39:47.361Z,99343.09
2022-12-11T22:42:50.224Z,99343.69
2022-12-11T22:45:52.890Z,99345.31
2022-12-11T22:48:57.229Z,99350.00
2022-12-11T22:52:00.530Z,99352.13
2022-12-11T22:55:04.511Z,99356.50
2022-12-11T22:58:07.583Z,99361.25
2022-12-11T23:01:13.263Z,99358.22
2022-12-11T23:04:15.915Z,99362.56
2022-12-11T23:07:18.883Z,99365.00
2022-12-11T23:10:21.827Z,99366.50
2022-12-11T23:13:24.700Z,99375.94
2022-12-11T23:16:28.186Z,99373.38
2022-12-11T23:19:31.193Z,99366.78
2022-12-11T23:22:34.150Z,99375.37
2022-12-11T23:25:37.599Z,99367.44
2022-12-11T23:28:41.105Z,99365.22
2022-12-11T23:31:44.128Z,99365.44
2022-12-11T23:34:46.986Z,99374.94
2022-12-11T23:37:49.871Z,99385.88
2022-12-11T23:40:52.671Z,99380.34
2022-12-11T23:43:55.705Z,99403.03
2022-12-11T23:46:58.352Z,99408.47
2022-12-11T23:50:01.214Z,99407.47
2022-12-11T23:53:04.028Z,99399.28
2022-12-11T23:56:11.102Z,99395.12
2022-12-11T23:59:14.860Z,99387.28
